首页
METAR-TAF:

METAR-TAF

机场 :

坎佩切州, 墨西哥

纬度: 19-51N, 经度: 090-33W, 海拔: 5米

当前天气观测

该预报发布于51分钟前的15:43 UTC
静风
温度 25°C
湿度 89%
气压 1020 hPa
能見度: 8.0公里
散云层高于2000英尺
多云层高于5000英尺

METAR: MMCP 121543Z 00000KT 5SM SCT020 BKN050 25/23 A3012 RMK 8/500 HZY

时间: 10:34 (16:34 UTC)

预报

该预报发布于4小时和18分钟前的12:16 UTC
预报有效从12日的 12点(UTC)到 13日的 06点(UTC)
风速节,风向
能見度: 10公里
多云层高于4000英尺
多云层高于8000英尺
短暂存在
从 12日的 13点(UTC)到 12日的 17点(UTC)
能見度: 8.0公里
小雨
从 12日的 1800点(UTC)
风速8节,风向
能見度: 10公里
散云层高于2500英尺
多云层高于8000英尺
成为
从 13日的 03点(UTC)到 13日的 05点(UTC)
风速5节,风向北转东北

TAF: MMCP 121216Z 1212/1306 00000KT P6SM BKN040 BKN080 TEMPO 1213/1217 5SM -RA FM121800 10008KT P6SM SCT025 BKN080 BECMG 1303/1305 02005KT

超过4000个机场的气象观测和天气预报(METAR&TAF报告)。

可查询的气象台以黄色和红色小点在地图上表示。

将鼠标移到小点上方,可查看气象台名称。

然后点击查看天气观测和预报。

如需切换地图:点击带黑十字的绿色按钮放大地图;点击带横线的绿色按钮缩小地图;或者点击绿色箭头查看邻近地区的地图。


METAR-TAF: